sensor_id;sensor_type;location;lat;lon;timestamp;temperature;humidity
68865;DHT22;55898;52.196;4.420;2022-08-19T00:01:25;20.38;75.86
68865;DHT22;55898;52.196;4.420;2022-08-19T00:03:52;20.42;75.95
68865;DHT22;55898;52.196;4.420;2022-08-19T00:06:18;20.45;75.81
68865;DHT22;55898;52.196;4.420;2022-08-19T00:08:44;20.43;76.05
68865;DHT22;55898;52.196;4.420;2022-08-19T00:11:10;20.41;75.97
68865;DHT22;55898;52.196;4.420;2022-08-19T00:13:36;20.36;75.88
68865;DHT22;55898;52.196;4.420;2022-08-19T00:16:04;20.33;76.13
68865;DHT22;55898;52.196;4.420;2022-08-19T00:18:32;20.26;76.18
68865;DHT22;55898;52.196;4.420;2022-08-19T00:20:57;20.26;76.39
68865;DHT22;55898;52.196;4.420;2022-08-19T00:23:25;20.24;76.49
68865;DHT22;55898;52.196;4.420;2022-08-19T00:25:50;20.20;76.54
68865;DHT22;55898;52.196;4.420;2022-08-19T00:28:17;20.17;76.63
68865;DHT22;55898;52.196;4.420;2022-08-19T00:30:43;20.14;76.64
68865;DHT22;55898;52.196;4.420;2022-08-19T00:33:08;20.14;76.55
68865;DHT22;55898;52.196;4.420;2022-08-19T00:35:34;20.10;76.70
68865;DHT22;55898;52.196;4.420;2022-08-19T00:38:00;20.07;76.57
68865;DHT22;55898;52.196;4.420;2022-08-19T00:40:26;20.01;76.59
68865;DHT22;55898;52.196;4.420;2022-08-19T00:42:52;20.01;76.71
68865;DHT22;55898;52.196;4.420;2022-08-19T00:45:24;20.00;76.82
68865;DHT22;55898;52.196;4.420;2022-08-19T00:47:49;19.97;76.97
68865;DHT22;55898;52.196;4.420;2022-08-19T00:50:17;19.91;77.05
68865;DHT22;55898;52.196;4.420;2022-08-19T00:52:47;19.91;77.01
68865;DHT22;55898;52.196;4.420;2022-08-19T00:55:23;19.91;77.31
68865;DHT22;55898;52.196;4.420;2022-08-19T00:57:56;19.91;77.21
68865;DHT22;55898;52.196;4.420;2022-08-19T01:00:27;19.93;77.26
68865;DHT22;55898;52.196;4.420;2022-08-19T01:02:53;19.94;77.39
68865;DHT22;55898;52.196;4.420;2022-08-19T01:05:23;19.97;77.25
68865;DHT22;55898;52.196;4.420;2022-08-19T01:07:49;19.98;77.08
68865;DHT22;55898;52.196;4.420;2022-08-19T01:10:20;19.97;76.92
68865;DHT22;55898;52.196;4.420;2022-08-19T01:12:48;19.95;76.92
68865;DHT22;55898;52.196;4.420;2022-08-19T01:15:19;19.98;77.04
68865;DHT22;55898;52.196;4.420;2022-08-19T01:17:46;19.94;77.11
68865;DHT22;55898;52.196;4.420;2022-08-19T01:20:15;19.93;76.98
68865;DHT22;55898;52.196;4.420;2022-08-19T01:22:48;19.94;77.20
68865;DHT22;55898;52.196;4.420;2022-08-19T01:25:17;19.97;77.25
68865;DHT22;55898;52.196;4.420;2022-08-19T01:27:47;19.95;77.33
68865;DHT22;55898;52.196;4.420;2022-08-19T01:30:27;19.91;77.20
68865;DHT22;55898;52.196;4.420;2022-08-19T01:32:54;19.87;77.22
68865;DHT22;55898;52.196;4.420;2022-08-19T01:35:20;19.84;77.16
68865;DHT22;55898;52.196;4.420;2022-08-19T01:37:54;19.83;77.43
68865;DHT22;55898;52.196;4.420;2022-08-19T01:40:22;19.81;77.57
68865;DHT22;55898;52.196;4.420;2022-08-19T01:42:52;19.80;77.66
68865;DHT22;55898;52.196;4.420;2022-08-19T01:45:21;19.74;77.79
68865;DHT22;55898;52.196;4.420;2022-08-19T01:47:47;19.80;77.91
68865;DHT22;55898;52.196;4.420;2022-08-19T01:50:13;19.84;77.90
68865;DHT22;55898;52.196;4.420;2022-08-19T01:52:40;19.84;78.02
68865;DHT22;55898;52.196;4.420;2022-08-19T01:55:10;19.87;78.02
68865;DHT22;55898;52.196;4.420;2022-08-19T01:57:38;19.87;78.12
68865;DHT22;55898;52.196;4.420;2022-08-19T02:00:09;19.85;78.16
68865;DHT22;55898;52.196;4.420;2022-08-19T02:02:34;19.80;77.98
68865;DHT22;55898;52.196;4.420;2022-08-19T02:05:00;19.77;77.80
68865;DHT22;55898;52.196;4.420;2022-08-19T02:07:25;19.74;78.00
68865;DHT22;55898;52.196;4.420;2022-08-19T02:09:54;19.73;78.15
68865;DHT22;55898;52.196;4.420;2022-08-19T02:12:20;19.70;78.30
68865;DHT22;55898;52.196;4.420;2022-08-19T02:14:46;19.66;78.34
68865;DHT22;55898;52.196;4.420;2022-08-19T02:17:11;19.66;78.40
68865;DHT22;55898;52.196;4.420;2022-08-19T02:19:37;19.62;78.25
68865;DHT22;55898;52.196;4.420;2022-08-19T02:22:03;19.59;78.43
68865;DHT22;55898;52.196;4.420;2022-08-19T02:24:29;19.57;78.54
68865;DHT22;55898;52.196;4.420;2022-08-19T02:26:54;19.53;78.67
68865;DHT22;55898;52.196;4.420;2022-08-19T02:29:20;19.52;78.85
68865;DHT22;55898;52.196;4.420;2022-08-19T02:31:46;19.52;78.85
68865;DHT22;55898;52.196;4.420;2022-08-19T02:34:11;19.47;78.87
68865;DHT22;55898;52.196;4.420;2022-08-19T02:36:37;19.47;78.85
68865;DHT22;55898;52.196;4.420;2022-08-19T02:39:03;19.45;78.93
68865;DHT22;55898;52.196;4.420;2022-08-19T02:41:32;19.47;78.99
68865;DHT22;55898;52.196;4.420;2022-08-19T02:43:59;19.45;79.24
68865;DHT22;55898;52.196;4.420;2022-08-19T02:46:29;19.47;79.21
68865;DHT22;55898;52.196;4.420;2022-08-19T02:48:58;19.46;79.31
68865;DHT22;55898;52.196;4.420;2022-08-19T02:51:30;19.46;79.34
68865;DHT22;55898;52.196;4.420;2022-08-19T02:53:56;19.40;79.18
68865;DHT22;55898;52.196;4.420;2022-08-19T02:56:23;19.40;79.11
68865;DHT22;55898;52.196;4.420;2022-08-19T02:58:50;19.36;79.22
68865;DHT22;55898;52.196;4.420;2022-08-19T03:01:21;19.33;79.38
68865;DHT22;55898;52.196;4.420;2022-08-19T03:03:47;19.27;79.60
68865;DHT22;55898;52.196;4.420;2022-08-19T03:06:15;19.27;79.59
68865;DHT22;55898;52.196;4.420;2022-08-19T03:08:43;19.29;79.87
68865;DHT22;55898;52.196;4.420;2022-08-19T03:11:14;19.26;79.82
68865;DHT22;55898;52.196;4.420;2022-08-19T03:13:39;19.29;79.84
68865;DHT22;55898;52.196;4.420;2022-08-19T03:16:05;19.25;79.88
68865;DHT22;55898;52.196;4.420;2022-08-19T03:18:31;19.23;79.96
68865;DHT22;55898;52.196;4.420;2022-08-19T03:20:56;19.20;80.08
68865;DHT22;55898;52.196;4.420;2022-08-19T03:23:23;19.20;80.09
68865;DHT22;55898;52.196;4.420;2022-08-19T03:25:50;19.20;80.11
68865;DHT22;55898;52.196;4.420;2022-08-19T03:28:16;19.22;80.32
68865;DHT22;55898;52.196;4.420;2022-08-19T03:30:55;19.25;80.36
68865;DHT22;55898;52.196;4.420;2022-08-19T03:33:25;19.26;80.34
68865;DHT22;55898;52.196;4.420;2022-08-19T03:38:33;19.23;80.50
68865;DHT22;55898;52.196;4.420;2022-08-19T03:41:03;19.22;80.46
68865;DHT22;55898;52.196;4.420;2022-08-19T03:43:33;19.22;80.35
68865;DHT22;55898;52.196;4.420;2022-08-19T03:46:00;19.20;80.28
68865;DHT22;55898;52.196;4.420;2022-08-19T03:48:26;19.18;80.31
68865;DHT22;55898;52.196;4.420;2022-08-19T03:50:51;19.15;80.55
68865;DHT22;55898;52.196;4.420;2022-08-19T03:53:17;19.15;80.52
68865;DHT22;55898;52.196;4.420;2022-08-19T03:55:42;19.19;80.59
68865;DHT22;55898;52.196;4.420;2022-08-19T03:58:08;19.22;80.86
68865;DHT22;55898;52.196;4.420;2022-08-19T04:00:33;19.25;80.72
68865;DHT22;55898;52.196;4.420;2022-08-19T04:02:59;19.27;80.73
68865;DHT22;55898;52.196;4.420;2022-08-19T04:05:27;19.26;80.80
68865;DHT22;55898;52.196;4.420;2022-08-19T04:07:53;19.27;80.98
68865;DHT22;55898;52.196;4.420;2022-08-19T04:10:22;19.29;81.00
68865;DHT22;55898;52.196;4.420;2022-08-19T04:12:49;19.30;81.17
68865;DHT22;55898;52.196;4.420;2022-08-19T04:15:14;19.29;81.56
68865;DHT22;55898;52.196;4.420;2022-08-19T04:17:40;19.30;81.50
68865;DHT22;55898;52.196;4.420;2022-08-19T04:20:06;19.30;81.55
68865;DHT22;55898;52.196;4.420;2022-08-19T04:22:31;19.36;81.93
68865;DHT22;55898;52.196;4.420;2022-08-19T04:24:57;19.36;81.97
68865;DHT22;55898;52.196;4.420;2022-08-19T04:27:23;19.42;82.07
68865;DHT22;55898;52.196;4.420;2022-08-19T04:29:48;19.45;82.60
68865;DHT22;55898;52.196;4.420;2022-08-19T04:32:14;19.46;82.46
68865;DHT22;55898;52.196;4.420;2022-08-19T04:34:41;19.45;82.27
68865;DHT22;55898;52.196;4.420;2022-08-19T04:37:08;19.46;82.25
68865;DHT22;55898;52.196;4.420;2022-08-19T04:39:37;19.46;82.23
68865;DHT22;55898;52.196;4.420;2022-08-19T04:42:21;19.47;82.41
68865;DHT22;55898;52.196;4.420;2022-08-19T04:45:09;19.52;82.40
68865;DHT22;55898;52.196;4.420;2022-08-19T04:47:37;19.52;82.35
68865;DHT22;55898;52.196;4.420;2022-08-19T04:50:03;19.53;82.36
68865;DHT22;55898;52.196;4.420;2022-08-19T04:52:28;19.53;82.39
68865;DHT22;55898;52.196;4.420;2022-08-19T04:54:55;19.56;82.30
68865;DHT22;55898;52.196;4.420;2022-08-19T04:57:20;19.56;82.25
68865;DHT22;55898;52.196;4.420;2022-08-19T04:59:46;19.59;82.34
68865;DHT22;55898;52.196;4.420;2022-08-19T05:02:11;19.60;82.34
68865;DHT22;55898;52.196;4.420;2022-08-19T05:04:37;19.63;82.28
68865;DHT22;55898;52.196;4.420;2022-08-19T05:07:05;19.63;82.27
68865;DHT22;55898;52.196;4.420;2022-08-19T05:09:30;19.64;82.31
68865;DHT22;55898;52.196;4.420;2022-08-19T05:11:56;19.69;82.35
68865;DHT22;55898;52.196;4.420;2022-08-19T05:14:21;19.67;82.26
68865;DHT22;55898;52.196;4.420;2022-08-19T05:16:47;19.70;82.34
68865;DHT22;55898;52.196;4.420;2022-08-19T05:19:13;19.74;82.34
68865;DHT22;55898;52.196;4.420;2022-08-19T05:21:57;19.74;82.37
68865;DHT22;55898;52.196;4.420;2022-08-19T05:24:41;19.73;82.35
68865;DHT22;55898;52.196;4.420;2022-08-19T05:27:06;19.73;82.41
68865;DHT22;55898;52.196;4.420;2022-08-19T05:29:33;19.78;82.41
68865;DHT22;55898;52.196;4.420;2022-08-19T05:32:01;19.85;82.60
68865;DHT22;55898;52.196;4.420;2022-08-19T05:34:27;19.85;82.44
68865;DHT22;55898;52.196;4.420;2022-08-19T05:36:56;19.91;82.44
68865;DHT22;55898;52.196;4.420;2022-08-19T05:39:25;19.91;82.45
68865;DHT22;55898;52.196;4.420;2022-08-19T05:41:57;19.90;82.52
68865;DHT22;55898;52.196;4.420;2022-08-19T05:44:29;19.95;82.53
68865;DHT22;55898;52.196;4.420;2022-08-19T05:46:59;20.00;82.52
68865;DHT22;55898;52.196;4.420;2022-08-19T05:49:26;20.05;82.70
68865;DHT22;55898;52.196;4.420;2022-08-19T05:51:53;20.05;82.88
68865;DHT22;55898;52.196;4.420;2022-08-19T05:54:18;20.05;82.96
68865;DHT22;55898;52.196;4.420;2022-08-19T05:56:45;20.08;83.12
68865;DHT22;55898;52.196;4.420;2022-08-19T05:59:14;20.15;83.15
68865;DHT22;55898;52.196;4.420;2022-08-19T06:01:42;20.17;83.18
68865;DHT22;55898;52.196;4.420;2022-08-19T06:04:08;20.18;83.25
68865;DHT22;55898;52.196;4.420;2022-08-19T06:06:35;20.22;83.23
68865;DHT22;55898;52.196;4.420;2022-08-19T06:09:06;20.28;83.25
68865;DHT22;55898;52.196;4.420;2022-08-19T06:14:07;20.38;83.13
68865;DHT22;55898;52.196;4.420;2022-08-19T06:16:38;20.43;83.13
68865;DHT22;55898;52.196;4.420;2022-08-19T06:19:07;20.49;83.01
68865;DHT22;55898;52.196;4.420;2022-08-19T06:21:34;20.52;83.19
68865;DHT22;55898;52.196;4.420;2022-08-19T06:24:04;20.57;83.12
68865;DHT22;55898;52.196;4.420;2022-08-19T06:26:30;20.62;82.95
68865;DHT22;55898;52.196;4.420;2022-08-19T06:28:56;20.69;83.01
68865;DHT22;55898;52.196;4.420;2022-08-19T06:31:27;20.75;82.97
68865;DHT22;55898;52.196;4.420;2022-08-19T06:33:53;20.83;82.88
68865;DHT22;55898;52.196;4.420;2022-08-19T06:36:31;20.87;82.90
68865;DHT22;55898;52.196;4.420;2022-08-19T06:39:00;20.96;82.77
68865;DHT22;55898;52.196;4.420;2022-08-19T06:41:28;21.01;83.06
68865;DHT22;55898;52.196;4.420;2022-08-19T06:43:54;21.11;82.83
68865;DHT22;55898;52.196;4.420;2022-08-19T06:46:21;21.18;82.51
68865;DHT22;55898;52.196;4.420;2022-08-19T06:48:47;21.27;82.38
68865;DHT22;55898;52.196;4.420;2022-08-19T06:51:17;21.30;82.48
68865;DHT22;55898;52.196;4.420;2022-08-19T06:53:47;21.32;82.35
68865;DHT22;55898;52.196;4.420;2022-08-19T06:56:15;21.38;82.16
68865;DHT22;55898;52.196;4.420;2022-08-19T06:58:41;21.42;82.51
68865;DHT22;55898;52.196;4.420;2022-08-19T07:01:07;21.49;82.22
68865;DHT22;55898;52.196;4.420;2022-08-19T07:03:35;21.54;82.50
68865;DHT22;55898;52.196;4.420;2022-08-19T07:08:31;21.74;81.90
68865;DHT22;55898;52.196;4.420;2022-08-19T07:10:57;21.68;82.16
68865;DHT22;55898;52.196;4.420;2022-08-19T07:13:23;21.72;82.28
68865;DHT22;55898;52.196;4.420;2022-08-19T07:15:49;21.72;82.11
68865;DHT22;55898;52.196;4.420;2022-08-19T07:18:19;21.85;82.11
68865;DHT22;55898;52.196;4.420;2022-08-19T07:20:46;21.93;81.54
68865;DHT22;55898;52.196;4.420;2022-08-19T07:23:12;21.95;80.92
68865;DHT22;55898;52.196;4.420;2022-08-19T07:25:39;22.00;80.50
68865;DHT22;55898;52.196;4.420;2022-08-19T07:28:05;22.10;80.28
68865;DHT22;55898;52.196;4.420;2022-08-19T07:30:32;22.16;79.65
68865;DHT22;55898;52.196;4.420;2022-08-19T07:32:58;22.24;79.35
68865;DHT22;55898;52.196;4.420;2022-08-19T07:35:23;22.34;78.78
68865;DHT22;55898;52.196;4.420;2022-08-19T07:37:50;22.41;78.82
68865;DHT22;55898;52.196;4.420;2022-08-19T07:40:15;22.37;78.17
68865;DHT22;55898;52.196;4.420;2022-08-19T07:42:41;22.30;78.17
68865;DHT22;55898;52.196;4.420;2022-08-19T07:45:08;22.33;78.18
68865;DHT22;55898;52.196;4.420;2022-08-19T07:47:35;22.39;78.22
68865;DHT22;55898;52.196;4.420;2022-08-19T07:50:01;22.43;78.03
68865;DHT22;55898;52.196;4.420;2022-08-19T07:52:29;22.36;78.21
68865;DHT22;55898;52.196;4.420;2022-08-19T07:54:55;22.34;77.90
68865;DHT22;55898;52.196;4.420;2022-08-19T07:57:20;22.33;78.05
68865;DHT22;55898;52.196;4.420;2022-08-19T07:59:46;22.39;78.34
68865;DHT22;55898;52.196;4.420;2022-08-19T08:02:12;22.47;77.98
68865;DHT22;55898;52.196;4.420;2022-08-19T08:04:37;22.47;78.09
68865;DHT22;55898;52.196;4.420;2022-08-19T08:07:21;22.50;78.17
68865;DHT22;55898;52.196;4.420;2022-08-19T08:10:06;22.47;77.81
68865;DHT22;55898;52.196;4.420;2022-08-19T08:12:39;22.54;77.93
68865;DHT22;55898;52.196;4.420;2022-08-19T08:15:14;22.72;77.79
68865;DHT22;55898;52.196;4.420;2022-08-19T08:17:44;22.84;77.04
68865;DHT22;55898;52.196;4.420;2022-08-19T08:20:11;22.92;76.89
68865;DHT22;55898;52.196;4.420;2022-08-19T08:22:37;23.11;76.74
68865;DHT22;55898;52.196;4.420;2022-08-19T08:25:23;23.12;76.77
68865;DHT22;55898;52.196;4.420;2022-08-19T08:27:49;23.11;76.00
68865;DHT22;55898;52.196;4.420;2022-08-19T08:30:21;23.06;75.70
68865;DHT22;55898;52.196;4.420;2022-08-19T08:32:47;23.02;76.43
68865;DHT22;55898;52.196;4.420;2022-08-19T08:35:15;23.12;76.31
68865;DHT22;55898;52.196;4.420;2022-08-19T08:37:42;23.20;76.31
68865;DHT22;55898;52.196;4.420;2022-08-19T08:40:49;23.11;76.18
68865;DHT22;55898;52.196;4.420;2022-08-19T08:43:40;23.11;75.64
68865;DHT22;55898;52.196;4.420;2022-08-19T08:46:17;23.13;75.73
68865;DHT22;55898;52.196;4.420;2022-08-19T08:49:01;23.23;76.35
68865;DHT22;55898;52.196;4.420;2022-08-19T08:51:39;23.29;74.84
68865;DHT22;55898;52.196;4.420;2022-08-19T08:54:08;23.26;74.98
68865;DHT22;55898;52.196;4.420;2022-08-19T08:56:38;23.20;74.98
68865;DHT22;55898;52.196;4.420;2022-08-19T08:59:19;23.18;75.40
68865;DHT22;55898;52.196;4.420;2022-08-19T09:01:46;23.22;75.95
68865;DHT22;55898;52.196;4.420;2022-08-19T09:04:13;23.36;75.66
68865;DHT22;55898;52.196;4.420;2022-08-19T09:09:29;23.41;74.22
68865;DHT22;55898;52.196;4.420;2022-08-19T09:12:31;23.30;73.11
68865;DHT22;55898;52.196;4.420;2022-08-19T09:15:10;23.34;73.88
68865;DHT22;55898;52.196;4.420;2022-08-19T09:17:36;23.32;73.76
68865;DHT22;55898;52.196;4.420;2022-08-19T09:22:37;23.42;74.34
68865;DHT22;55898;52.196;4.420;2022-08-19T09:25:04;23.45;74.39
68865;DHT22;55898;52.196;4.420;2022-08-19T09:27:30;23.56;74.21
68865;DHT22;55898;52.196;4.420;2022-08-19T09:29:58;23.62;73.47
68865;DHT22;55898;52.196;4.420;2022-08-19T09:32:24;23.67;73.48
68865;DHT22;55898;52.196;4.420;2022-08-19T09:34:53;23.67;73.13
68865;DHT22;55898;52.196;4.420;2022-08-19T09:37:24;23.73;73.63
68865;DHT22;55898;52.196;4.420;2022-08-19T09:39:50;23.80;73.75
68865;DHT22;55898;52.196;4.420;2022-08-19T09:42:16;23.96;72.62
68865;DHT22;55898;52.196;4.420;2022-08-19T09:44:43;24.04;72.54
68865;DHT22;55898;52.196;4.420;2022-08-19T09:47:11;24.00;72.16
68865;DHT22;55898;52.196;4.420;2022-08-19T09:49:37;23.85;72.30
68865;DHT22;55898;52.196;4.420;2022-08-19T09:52:05;23.78;72.39
68865;DHT22;55898;52.196;4.420;2022-08-19T09:54:33;23.78;72.27
68865;DHT22;55898;52.196;4.420;2022-08-19T09:57:00;23.94;72.29
68865;DHT22;55898;52.196;4.420;2022-08-19T09:59:26;24.02;72.59
68865;DHT22;55898;52.196;4.420;2022-08-19T10:01:52;24.14;72.34
68865;DHT22;55898;52.196;4.420;2022-08-19T10:04:17;24.17;71.85
68865;DHT22;55898;52.196;4.420;2022-08-19T10:06:43;24.10;71.44
68865;DHT22;55898;52.196;4.420;2022-08-19T10:09:10;24.11;71.50
68865;DHT22;55898;52.196;4.420;2022-08-19T10:11:40;24.33;71.56
68865;DHT22;55898;52.196;4.420;2022-08-19T10:14:06;24.48;71.42
68865;DHT22;55898;52.196;4.420;2022-08-19T10:16:32;24.73;70.99
68865;DHT22;55898;52.196;4.420;2022-08-19T10:18:58;24.86;69.69
68865;DHT22;55898;52.196;4.420;2022-08-19T10:21:30;24.86;70.04
68865;DHT22;55898;52.196;4.420;2022-08-19T10:23:59;24.73;69.60
68865;DHT22;55898;52.196;4.420;2022-08-19T10:26:32;24.66;69.76
68865;DHT22;55898;52.196;4.420;2022-08-19T10:28:58;24.62;70.01
68865;DHT22;55898;52.196;4.420;2022-08-19T10:31:27;24.62;70.35
68865;DHT22;55898;52.196;4.420;2022-08-19T10:33:54;24.72;70.52
68865;DHT22;55898;52.196;4.420;2022-08-19T10:36:31;24.59;70.53
68865;DHT22;55898;52.196;4.420;2022-08-19T10:38:59;24.47;70.61
68865;DHT22;55898;52.196;4.420;2022-08-19T10:41:30;24.36;70.89
68865;DHT22;55898;52.196;4.420;2022-08-19T10:44:03;24.32;70.43
68865;DHT22;55898;52.196;4.420;2022-08-19T10:46:32;24.21;71.18
68865;DHT22;55898;52.196;4.420;2022-08-19T10:49:00;24.24;71.39
68865;DHT22;55898;52.196;4.420;2022-08-19T10:51:27;24.31;70.51
68865;DHT22;55898;52.196;4.420;2022-08-19T10:54:11;24.51;69.77
68865;DHT22;55898;52.196;4.420;2022-08-19T10:56:37;24.70;69.34
68865;DHT22;55898;52.196;4.420;2022-08-19T10:59:23;24.91;69.43
68865;DHT22;55898;52.196;4.420;2022-08-19T11:01:50;25.17;68.76
68865;DHT22;55898;52.196;4.420;2022-08-19T11:04:18;25.33;67.46
68865;DHT22;55898;52.196;4.420;2022-08-19T11:06:46;25.23;67.72
68865;DHT22;55898;52.196;4.420;2022-08-19T11:09:22;24.99;68.48
68865;DHT22;55898;52.196;4.420;2022-08-19T11:11:52;24.82;68.84
68865;DHT22;55898;52.196;4.420;2022-08-19T11:14:20;24.63;69.26
68865;DHT22;55898;52.196;4.420;2022-08-19T11:16:51;24.59;69.49
68865;DHT22;55898;52.196;4.420;2022-08-19T11:19:18;24.42;70.19
68865;DHT22;55898;52.196;4.420;2022-08-19T11:21:47;24.43;70.61
68865;DHT22;55898;52.196;4.420;2022-08-19T11:24:19;24.39;69.94
68865;DHT22;55898;52.196;4.420;2022-08-19T11:26:47;24.35;70.45
68865;DHT22;55898;52.196;4.420;2022-08-19T11:29:19;24.47;70.08
68865;DHT22;55898;52.196;4.420;2022-08-19T11:31:47;24.69;69.34
68865;DHT22;55898;52.196;4.420;2022-08-19T11:34:18;25.02;69.65
68865;DHT22;55898;52.196;4.420;2022-08-19T11:36:45;25.31;68.35
68865;DHT22;55898;52.196;4.420;2022-08-19T11:39:15;25.55;67.21
68865;DHT22;55898;52.196;4.420;2022-08-19T11:41:41;25.75;66.15
68865;DHT22;55898;52.196;4.420;2022-08-19T11:44:07;25.76;64.64
68865;DHT22;55898;52.196;4.420;2022-08-19T11:46:34;26.07;65.77
68865;DHT22;55898;52.196;4.420;2022-08-19T11:49:01;26.32;65.03
68865;DHT22;55898;52.196;4.420;2022-08-19T11:51:28;27.28;63.29
68865;DHT22;55898;52.196;4.420;2022-08-19T11:53:56;27.16;62.10
68865;DHT22;55898;52.196;4.420;2022-08-19T11:58:49;26.45;63.86
68865;DHT22;55898;52.196;4.420;2022-08-19T12:01:17;26.47;64.20
68865;DHT22;55898;52.196;4.420;2022-08-19T12:03:45;26.44;63.88
68865;DHT22;55898;52.196;4.420;2022-08-19T12:06:14;26.26;63.78
68865;DHT22;55898;52.196;4.420;2022-08-19T12:08:40;26.09;64.14
68865;DHT22;55898;52.196;4.420;2022-08-19T12:11:07;25.82;65.00
68865;DHT22;55898;52.196;4.420;2022-08-19T12:13:35;25.79;65.60
68865;DHT22;55898;52.196;4.420;2022-08-19T12:16:11;26.22;65.45
68865;DHT22;55898;52.196;4.420;2022-08-19T12:18:41;26.84;64.29
68865;DHT22;55898;52.196;4.420;2022-08-19T12:21:09;27.29;61.76
68865;DHT22;55898;52.196;4.420;2022-08-19T12:23:36;28.01;59.23
68865;DHT22;55898;52.196;4.420;2022-08-19T12:26:03;28.35;58.18
68865;DHT22;55898;52.196;4.420;2022-08-19T12:28:30;28.70;59.20
68865;DHT22;55898;52.196;4.420;2022-08-19T12:30:56;29.04;54.30
68865;DHT22;55898;52.196;4.420;2022-08-19T12:33:22;30.08;53.23
68865;DHT22;55898;52.196;4.420;2022-08-19T12:35:51;30.03;52.54
68865;DHT22;55898;52.196;4.420;2022-08-19T12:38:17;29.61;53.77
68865;DHT22;55898;52.196;4.420;2022-08-19T12:40:45;28.94;56.52
68865;DHT22;55898;52.196;4.420;2022-08-19T12:43:12;28.39;56.47
68865;DHT22;55898;52.196;4.420;2022-08-19T12:45:37;28.17;57.71
68865;DHT22;55898;52.196;4.420;2022-08-19T12:48:03;28.07;58.75
68865;DHT22;55898;52.196;4.420;2022-08-19T12:50:30;28.28;56.64
68865;DHT22;55898;52.196;4.420;2022-08-19T12:52:56;28.63;55.97
68865;DHT22;55898;52.196;4.420;2022-08-19T12:55:22;29.69;54.77
68865;DHT22;55898;52.196;4.420;2022-08-19T12:57:48;29.65;53.89
68865;DHT22;55898;52.196;4.420;2022-08-19T13:00:19;30.85;50.37
68865;DHT22;55898;52.196;4.420;2022-08-19T13:02:51;31.42;48.36
68865;DHT22;55898;52.196;4.420;2022-08-19T13:05:30;32.29;47.01
68865;DHT22;55898;52.196;4.420;2022-08-19T13:07:57;32.68;47.29
68865;DHT22;55898;52.196;4.420;2022-08-19T13:10:28;32.24;47.43
68865;DHT22;55898;52.196;4.420;2022-08-19T13:12:54;31.93;47.93
68865;DHT22;55898;52.196;4.420;2022-08-19T13:15:23;30.95;50.77
68865;DHT22;55898;52.196;4.420;2022-08-19T13:17:50;30.16;52.01
68865;DHT22;55898;52.196;4.420;2022-08-19T13:20:19;29.71;53.57
68865;DHT22;55898;52.196;4.420;2022-08-19T13:22:46;29.50;54.07
68865;DHT22;55898;52.196;4.420;2022-08-19T13:25:14;29.23;54.88
68865;DHT22;55898;52.196;4.420;2022-08-19T13:27:42;29.21;55.25
68865;DHT22;55898;52.196;4.420;2022-08-19T13:30:11;29.34;55.32
68865;DHT22;55898;52.196;4.420;2022-08-19T13:32:55;29.52;54.85
68865;DHT22;55898;52.196;4.420;2022-08-19T13:35:58;29.76;54.89
68865;DHT22;55898;52.196;4.420;2022-08-19T13:38:27;29.35;55.01
68865;DHT22;55898;52.196;4.420;2022-08-19T13:40:54;29.71;54.04
68865;DHT22;55898;52.196;4.420;2022-08-19T13:43:23;30.09;53.94
68865;DHT22;55898;52.196;4.420;2022-08-19T13:45:53;30.54;52.56
68865;DHT22;55898;52.196;4.420;2022-08-19T13:48:20;32.39;49.07
68865;DHT22;55898;52.196;4.420;2022-08-19T13:50:46;32.27;49.08
68865;DHT22;55898;52.196;4.420;2022-08-19T13:53:13;32.69;47.49
68865;DHT22;55898;52.196;4.420;2022-08-19T13:55:41;32.24;48.67
68865;DHT22;55898;52.196;4.420;2022-08-19T13:58:09;32.03;49.26
68865;DHT22;55898;52.196;4.420;2022-08-19T14:00:39;32.05;48.14
68865;DHT22;55898;52.196;4.420;2022-08-19T14:03:05;31.35;49.94
68865;DHT22;55898;52.196;4.420;2022-08-19T14:05:32;31.15;51.22
68865;DHT22;55898;52.196;4.420;2022-08-19T14:07:58;31.02;51.14
68865;DHT22;55898;52.196;4.420;2022-08-19T14:10:25;30.96;51.41
68865;DHT22;55898;52.196;4.420;2022-08-19T14:12:59;30.99;51.68
68865;DHT22;55898;52.196;4.420;2022-08-19T14:15:25;30.78;51.74
68865;DHT22;55898;52.196;4.420;2022-08-19T14:17:51;31.42;50.50
68865;DHT22;55898;52.196;4.420;2022-08-19T14:20:17;31.69;50.81
68865;DHT22;55898;52.196;4.420;2022-08-19T14:22:44;32.42;47.77
68865;DHT22;55898;52.196;4.420;2022-08-19T14:25:14;32.98;46.64
68865;DHT22;55898;52.196;4.420;2022-08-19T14:27:41;32.32;47.78
68865;DHT22;55898;52.196;4.420;2022-08-19T14:30:10;31.94;48.67
68865;DHT22;55898;52.196;4.420;2022-08-19T14:32:35;31.40;50.44
68865;DHT22;55898;52.196;4.420;2022-08-19T14:35:02;30.95;51.24
68865;DHT22;55898;52.196;4.420;2022-08-19T14:37:28;30.94;51.05
68865;DHT22;55898;52.196;4.420;2022-08-19T14:42:19;31.28;48.94
68865;DHT22;55898;52.196;4.420;2022-08-19T14:44:45;30.23;51.82
68865;DHT22;55898;52.196;4.420;2022-08-19T14:47:11;29.69;53.42
68865;DHT22;55898;52.196;4.420;2022-08-19T14:49:37;29.50;53.90
68865;DHT22;55898;52.196;4.420;2022-08-19T14:52:03;29.41;53.56
68865;DHT22;55898;52.196;4.420;2022-08-19T14:54:28;29.25;53.21
68865;DHT22;55898;52.196;4.420;2022-08-19T14:56:54;29.76;52.79
68865;DHT22;55898;52.196;4.420;2022-08-19T14:59:19;29.90;52.26
68865;DHT22;55898;52.196;4.420;2022-08-19T15:01:45;29.38;53.23
68865;DHT22;55898;52.196;4.420;2022-08-19T15:04:10;29.07;55.11
68865;DHT22;55898;52.196;4.420;2022-08-19T15:06:36;28.65;55.45
68865;DHT22;55898;52.196;4.420;2022-08-19T15:09:02;28.38;56.74
68865;DHT22;55898;52.196;4.420;2022-08-19T15:11:28;28.18;58.25
68865;DHT22;55898;52.196;4.420;2022-08-19T15:13:58;28.08;58.21
68865;DHT22;55898;52.196;4.420;2022-08-19T15:16:25;27.74;60.05
68865;DHT22;55898;52.196;4.420;2022-08-19T15:18:55;27.69;61.68
68865;DHT22;55898;52.196;4.420;2022-08-19T15:21:23;27.51;62.34
68865;DHT22;55898;52.196;4.420;2022-08-19T15:23:50;27.29;63.39
68865;DHT22;55898;52.196;4.420;2022-08-19T15:26:20;27.22;66.24
68865;DHT22;55898;52.196;4.420;2022-08-19T15:28:46;27.15;62.96
68865;DHT22;55898;52.196;4.420;2022-08-19T15:31:17;27.11;64.88
68865;DHT22;55898;52.196;4.420;2022-08-19T15:33:43;27.09;66.39
68865;DHT22;55898;52.196;4.420;2022-08-19T15:36:10;27.06;65.74
68865;DHT22;55898;52.196;4.420;2022-08-19T15:38:37;27.06;64.73
68865;DHT22;55898;52.196;4.420;2022-08-19T15:41:05;27.11;63.02
68865;DHT22;55898;52.196;4.420;2022-08-19T15:43:52;26.72;62.71
68865;DHT22;55898;52.196;4.420;2022-08-19T15:46:20;26.84;64.98
68865;DHT22;55898;52.196;4.420;2022-08-19T15:48:47;26.96;63.56
68865;DHT22;55898;52.196;4.420;2022-08-19T15:51:14;27.09;61.94
68865;DHT22;55898;52.196;4.420;2022-08-19T15:53:40;27.11;62.27
68865;DHT22;55898;52.196;4.420;2022-08-19T15:56:10;26.88;61.99